createdAt,value
2023-03-27T00:00:13.244Z,0.70
2023-03-27T00:02:41.533Z,1.03
2023-03-27T00:05:10.206Z,0.93
2023-03-27T00:07:41.180Z,4.27
2023-03-27T00:10:10.353Z,0.60
2023-03-27T00:12:40.172Z,2.70
2023-03-27T00:15:09.755Z,1.50
2023-03-27T00:17:38.072Z,1.30
2023-03-27T00:20:07.051Z,1.40
2023-03-27T00:22:35.974Z,0.50
2023-03-27T00:25:04.275Z,0.70
2023-03-27T00:27:32.660Z,1.67
2023-03-27T00:30:02.106Z,2.13
2023-03-27T00:32:30.050Z,4.00
2023-03-27T00:34:58.098Z,1.80
2023-03-27T00:37:26.113Z,1.37
2023-03-27T00:39:54.074Z,0.60
2023-03-27T00:42:24.467Z,1.37
2023-03-27T00:44:53.969Z,1.27
2023-03-27T00:47:31.627Z,0.73
2023-03-27T00:50:01.940Z,0.63
2023-03-27T00:52:31.547Z,1.67
2023-03-27T00:55:04.220Z,1.30
2023-03-27T00:57:32.524Z,3.20
2023-03-27T01:00:09.557Z,3.57
2023-03-27T01:02:39.767Z,1.07
2023-03-27T01:05:09.562Z,4.63
2023-03-27T01:07:39.306Z,4.90
2023-03-27T01:10:10.038Z,0.73
2023-03-27T01:12:46.278Z,1.57
2023-03-27T01:15:31.737Z,1.23
2023-03-27T01:18:28.792Z,3.03
2023-03-27T01:21:38.004Z,0.93
2023-03-27T01:24:53.638Z,0.87
2023-03-27T01:27:30.532Z,4.97
2023-03-27T01:30:15.317Z,1.43
2023-03-27T01:33:10.057Z,1.33
2023-03-27T01:36:12.014Z,0.20
2023-03-27T01:39:19.686Z,0.80
2023-03-27T01:41:56.764Z,0.93
2023-03-27T01:44:43.175Z,2.83
2023-03-27T01:47:22.231Z,0.53
2023-03-27T01:49:54.690Z,0.93
2023-03-27T01:52:26.764Z,4.17
2023-03-27T01:55:03.343Z,0.50
2023-03-27T01:57:38.121Z,0.80
2023-03-27T02:00:22.238Z,0.83
2023-03-27T02:02:55.058Z,1.57
2023-03-27T02:05:29.287Z,0.63
2023-03-27T02:08:05.765Z,3.90
2023-03-27T02:10:38.805Z,0.40
2023-03-27T02:13:13.980Z,0.40
2023-03-27T02:15:43.926Z,2.37
2023-03-27T02:18:19.161Z,0.33
2023-03-27T02:20:47.366Z,2.20
2023-03-27T02:23:15.415Z,1.57
2023-03-27T02:25:45.675Z,0.17
2023-03-27T02:28:37.751Z,0.87
2023-03-27T02:31:32.801Z,0.70
2023-03-27T02:34:23.306Z,0.60
2023-03-27T02:37:02.002Z,0.77
2023-03-27T02:39:37.046Z,0.50
2023-03-27T02:42:10.555Z,0.40
2023-03-27T02:44:46.516Z,2.27
2023-03-27T02:47:19.317Z,0.77
2023-03-27T02:49:52.390Z,1.67
2023-03-27T02:52:25.084Z,1.03
2023-03-27T02:54:57.974Z,0.67
2023-03-27T02:57:29.068Z,0.20
2023-03-27T03:00:00.530Z,0.60
2023-03-27T03:02:33.843Z,0.73
2023-03-27T03:05:06.985Z,4.33
2023-03-27T03:07:36.133Z,0.60
2023-03-27T03:10:04.235Z,1.70
2023-03-27T03:12:32.510Z,0.23
2023-03-27T03:15:01.853Z,0.77
2023-03-27T03:17:30.045Z,0.43
2023-03-27T03:19:58.142Z,0.50
2023-03-27T03:22:26.286Z,0.67
2023-03-27T03:24:54.401Z,1.83
2023-03-27T03:27:22.450Z,0.13
2023-03-27T03:29:50.520Z,0.63
2023-03-27T03:32:19.855Z,1.03
2023-03-27T03:34:47.840Z,0.20
2023-03-27T03:37:16.077Z,1.37
2023-03-27T03:39:44.009Z,0.47
2023-03-27T03:42:22.259Z,0.10
2023-03-27T03:44:51.098Z,2.33
2023-03-27T03:47:20.501Z,0.50
2023-03-27T03:49:48.495Z,0.43
2023-03-27T03:52:16.777Z,0.40
2023-03-27T03:54:46.658Z,0.27
2023-03-27T03:57:15.359Z,0.20
2023-03-27T03:59:43.649Z,0.57
2023-03-27T04:02:12.379Z,0.40
2023-03-27T04:04:43.747Z,0.20
2023-03-27T04:07:13.403Z,2.77
2023-03-27T04:09:41.352Z,0.57
2023-03-27T04:12:09.972Z,0.40
2023-03-27T04:14:38.165Z,0.73
2023-03-27T04:17:06.252Z,0.53
2023-03-27T04:19:34.409Z,0.97
2023-03-27T04:22:04.456Z,2.70
2023-03-27T04:24:32.547Z,1.83
2023-03-27T04:27:01.355Z,1.90
2023-03-27T04:29:30.459Z,0.50
2023-03-27T04:31:58.993Z,0.40
2023-03-27T04:34:27.780Z,0.33
2023-03-27T04:36:55.768Z,0.67
2023-03-27T04:39:26.478Z,0.87
2023-03-27T04:41:54.472Z,1.60
2023-03-27T04:44:22.464Z,0.80
2023-03-27T04:46:50.664Z,0.57
2023-03-27T04:49:20.395Z,2.23
2023-03-27T04:51:48.511Z,0.30
2023-03-27T04:54:16.811Z,0.50
2023-03-27T04:56:46.689Z,0.30
2023-03-27T04:59:15.615Z,1.03
2023-03-27T05:01:43.700Z,0.80
2023-03-27T05:04:11.727Z,1.90
2023-03-27T05:06:40.753Z,2.53
2023-03-27T05:09:09.162Z,0.20
2023-03-27T05:11:37.242Z,0.30
2023-03-27T05:14:07.009Z,1.97
2023-03-27T05:16:35.878Z,0.87
2023-03-27T05:19:04.432Z,0.60
2023-03-27T05:21:32.457Z,1.93
2023-03-27T05:24:00.483Z,0.60
2023-03-27T05:26:28.460Z,0.50
2023-03-27T05:28:58.624Z,0.47
2023-03-27T05:31:28.505Z,0.83
2023-03-27T05:33:56.536Z,0.40
2023-03-27T05:36:24.649Z,0.87
2023-03-27T05:38:53.108Z,1.23
2023-03-27T05:41:21.509Z,0.03
2023-03-27T05:43:51.336Z,0.37
2023-03-27T05:46:20.664Z,0.70
2023-03-27T05:48:50.968Z,0.40
2023-03-27T05:51:19.041Z,3.77
2023-03-27T05:53:47.015Z,1.03
2023-03-27T05:56:15.074Z,2.33
2023-03-27T05:58:43.045Z,0.67
2023-03-27T06:01:11.815Z,0.40
2023-03-27T06:03:40.294Z,1.20
2023-03-27T06:06:11.682Z,0.60
2023-03-27T06:08:40.070Z,0.20
2023-03-27T06:11:11.948Z,1.50
2023-03-27T06:13:40.279Z,1.80
2023-03-27T06:16:09.335Z,1.87
2023-03-27T06:18:37.635Z,1.23
2023-03-27T06:21:06.572Z,0.57
2023-03-27T06:23:35.959Z,0.67
2023-03-27T06:26:04.090Z,0.87
2023-03-27T06:28:32.206Z,0.90
2023-03-27T06:31:00.449Z,0.43
2023-03-27T06:33:29.771Z,0.30
2023-03-27T06:36:00.538Z,0.47
2023-03-27T06:38:31.242Z,0.43
2023-03-27T06:41:00.884Z,2.03
2023-03-27T06:43:28.864Z,0.50
2023-03-27T06:45:57.113Z,0.43
2023-03-27T06:48:25.808Z,1.83
2023-03-27T06:50:54.601Z,0.30
2023-03-27T06:53:28.011Z,0.40
2023-03-27T06:55:57.774Z,0.83
2023-03-27T06:58:27.675Z,0.80
2023-03-27T07:00:56.040Z,0.97
2023-03-27T07:03:25.648Z,0.17
2023-03-27T07:05:53.692Z,2.20
2023-03-27T07:08:24.740Z,0.97
2023-03-27T07:11:08.084Z,0.70
2023-03-27T07:13:42.342Z,1.27
2023-03-27T07:16:12.339Z,1.27
2023-03-27T07:18:41.826Z,0.93
2023-03-27T07:21:10.001Z,1.33
2023-03-27T07:23:37.952Z,1.17
2023-03-27T07:26:06.743Z,0.93
2023-03-27T07:28:38.323Z,1.03
2023-03-27T07:31:32.624Z,0.60
2023-03-27T07:34:01.665Z,0.47
2023-03-27T07:36:29.905Z,1.50
2023-03-27T07:38:57.937Z,0.60
2023-03-27T07:41:25.964Z,0.53
2023-03-27T07:43:56.220Z,0.50
2023-03-27T07:46:26.433Z,0.53
2023-03-27T07:48:55.485Z,1.37
2023-03-27T07:51:23.755Z,0.63
2023-03-27T07:53:55.775Z,0.43
2023-03-27T07:56:24.568Z,0.90
2023-03-27T07:58:53.123Z,0.67
2023-03-27T08:01:21.125Z,1.37
2023-03-27T08:03:50.743Z,0.43
2023-03-27T08:06:19.253Z,0.87
2023-03-27T08:08:47.540Z,1.67
2023-03-27T08:11:27.391Z,3.37
2023-03-27T08:13:58.779Z,0.50
2023-03-27T08:16:29.504Z,0.57
2023-03-27T08:19:00.765Z,1.37
2023-03-27T08:21:31.774Z,0.73
2023-03-27T08:23:59.747Z,0.73
2023-03-27T08:26:28.932Z,1.30
2023-03-27T08:28:56.941Z,6.17
2023-03-27T08:31:25.493Z,9.43
2023-03-27T08:33:53.756Z,1.03
2023-03-27T08:36:23.403Z,0.77
2023-03-27T08:38:51.510Z,0.73
2023-03-27T08:41:30.628Z,0.70
2023-03-27T08:44:03.952Z,0.60
2023-03-27T08:46:37.146Z,0.43
2023-03-27T08:49:09.301Z,0.67
2023-03-27T08:51:43.875Z,1.13
2023-03-27T08:54:18.223Z,0.47
2023-03-27T08:56:46.615Z,1.23
2023-03-27T08:59:18.732Z,1.40
2023-03-27T09:01:53.134Z,0.20
2023-03-27T09:04:31.196Z,0.50
2023-03-27T09:07:04.338Z,1.00
2023-03-27T09:09:49.503Z,0.97
2023-03-27T09:12:39.369Z,2.97
2023-03-27T09:15:12.420Z,0.37
2023-03-27T09:17:44.829Z,0.27
2023-03-27T09:20:19.001Z,0.70
2023-03-27T09:22:52.839Z,0.50
2023-03-27T09:25:25.968Z,1.33
2023-03-27T09:27:54.973Z,1.10
2023-03-27T09:30:27.182Z,0.70
2023-03-27T09:32:58.953Z,0.30
2023-03-27T09:35:27.397Z,0.97
2023-03-27T09:38:01.208Z,0.67
2023-03-27T09:40:34.107Z,1.40
2023-03-27T09:43:09.087Z,0.73
2023-03-27T09:45:39.110Z,1.53
2023-03-27T09:48:11.990Z,0.83
2023-03-27T09:50:44.438Z,2.37
2023-03-27T09:53:15.939Z,0.77
2023-03-27T09:55:54.931Z,0.90
2023-03-27T09:58:32.868Z,1.10
2023-03-27T10:01:16.799Z,0.70
2023-03-27T10:03:52.548Z,1.40
2023-03-27T10:06:27.905Z,3.30
2023-03-27T10:09:01.068Z,0.80
2023-03-27T10:11:33.253Z,0.80
2023-03-27T10:14:02.881Z,1.87
2023-03-27T10:16:41.682Z,1.07
2023-03-27T10:19:27.057Z,1.20
2023-03-27T10:21:56.574Z,1.00
2023-03-27T10:24:34.158Z,3.60
2023-03-27T10:27:06.137Z,1.07
2023-03-27T10:29:36.491Z,1.03
2023-03-27T10:32:06.845Z,0.77
2023-03-27T10:34:37.862Z,2.47
2023-03-27T10:37:21.648Z,0.93
2023-03-27T10:39:53.626Z,5.47
2023-03-27T10:42:22.761Z,0.50
2023-03-27T10:44:54.441Z,0.60
2023-03-27T10:47:25.723Z,0.37
2023-03-27T10:50:03.850Z,0.80
2023-03-27T10:52:38.466Z,0.67
2023-03-27T10:55:41.593Z,1.43
2023-03-27T10:58:25.160Z,1.80
2023-03-27T11:01:00.857Z,0.93
2023-03-27T11:03:34.705Z,1.97
2023-03-27T11:06:06.505Z,1.60
2023-03-27T11:08:39.473Z,3.17
2023-03-27T11:11:17.508Z,1.23
2023-03-27T11:13:47.107Z,1.43
2023-03-27T11:16:21.736Z,1.27
2023-03-27T11:18:53.613Z,0.80
2023-03-27T11:21:28.540Z,0.47
2023-03-27T11:23:58.688Z,0.60
2023-03-27T11:26:35.135Z,0.93
2023-03-27T11:29:09.436Z,0.83
2023-03-27T11:31:46.398Z,0.87
2023-03-27T11:34:29.473Z,1.13
2023-03-27T11:37:02.623Z,0.80
2023-03-27T11:39:37.261Z,1.23
2023-03-27T11:42:17.235Z,1.27
2023-03-27T11:44:45.764Z,0.80
2023-03-27T11:47:43.601Z,0.93
2023-03-27T11:50:23.270Z,0.57
2023-03-27T11:53:02.457Z,3.60
2023-03-27T11:55:40.333Z,1.30
2023-03-27T11:58:26.678Z,2.60
2023-03-27T12:01:07.173Z,1.20
2023-03-27T12:04:09.178Z,1.40
2023-03-27T12:06:46.663Z,1.97
2023-03-27T12:09:28.738Z,1.57
2023-03-27T12:12:04.671Z,3.53
2023-03-27T12:14:48.452Z,1.67
2023-03-27T12:17:26.434Z,4.93
2023-03-27T12:20:32.179Z,2.10
2023-03-27T12:23:09.020Z,0.90
2023-03-27T12:25:50.506Z,3.00
2023-03-27T12:28:32.537Z,1.10
2023-03-27T12:31:13.471Z,1.23
2023-03-27T12:33:55.491Z,4.23
2023-03-27T12:36:26.170Z,2.37
2023-03-27T12:38:55.801Z,2.00
2023-03-27T12:41:26.394Z,5.97
2023-03-27T12:43:59.060Z,1.30
2023-03-27T12:46:37.400Z,1.47
2023-03-27T12:49:48.224Z,1.20
2023-03-27T12:52:18.677Z,2.97
2023-03-27T12:55:29.654Z,4.13
2023-03-27T12:57:58.201Z,6.87
2023-03-27T13:00:28.895Z,8.47
2023-03-27T13:03:26.666Z,12.87
2023-03-27T13:06:12.601Z,17.80
2023-03-27T13:09:12.111Z,11.03
2023-03-27T13:11:50.340Z,8.67
2023-03-27T13:15:00.338Z,1.10
2023-03-27T13:17:44.004Z,7.80
2023-03-27T13:20:23.990Z,7.70
2023-03-27T13:23:09.548Z,10.67
2023-03-27T13:26:02.926Z,9.20
2023-03-27T13:28:39.261Z,11.57
2023-03-27T13:31:11.243Z,9.27
2023-03-27T13:33:43.627Z,9.97
2023-03-27T13:36:19.348Z,10.90
2023-03-27T13:39:15.052Z,9.73
2023-03-27T13:41:56.625Z,8.90
2023-03-27T13:44:34.054Z,9.50
2023-03-27T13:47:15.663Z,8.67
2023-03-27T13:50:04.217Z,9.93
2023-03-27T13:52:59.229Z,9.63
2023-03-27T13:55:39.525Z,8.40
2023-03-27T13:58:24.738Z,9.17
2023-03-27T14:01:22.005Z,10.53
2023-03-27T14:04:11.994Z,9.40
2023-03-27T14:07:22.859Z,9.03
2023-03-27T14:10:07.110Z,7.43
2023-03-27T14:12:46.107Z,9.37
2023-03-27T14:16:02.769Z,11.53
2023-03-27T14:19:03.611Z,10.23
2023-03-27T14:21:50.805Z,11.53
2023-03-27T14:24:26.382Z,9.40
2023-03-27T14:26:55.896Z,8.17
2023-03-27T14:29:23.898Z,7.47
2023-03-27T14:31:53.555Z,7.70
2023-03-27T14:34:27.201Z,8.37
2023-03-27T14:36:56.109Z,5.77
2023-03-27T14:39:26.064Z,6.10
2023-03-27T14:41:57.484Z,6.20
2023-03-27T14:44:27.313Z,5.93
2023-03-27T14:47:03.720Z,6.63
2023-03-27T14:49:39.812Z,6.23
2023-03-27T14:52:09.088Z,6.37
2023-03-27T14:54:48.649Z,4.93
2023-03-27T14:57:25.784Z,5.87
2023-03-27T14:59:55.479Z,6.97
2023-03-27T15:02:30.413Z,4.77
2023-03-27T15:05:02.703Z,5.87
2023-03-27T15:07:35.493Z,7.53
2023-03-27T15:10:18.123Z,6.43
2023-03-27T15:12:47.686Z,8.53
2023-03-27T15:15:24.846Z,7.60
2023-03-27T15:17:55.973Z,13.67
2023-03-27T15:20:28.021Z,14.97
2023-03-27T15:23:02.146Z,19.70
2023-03-27T15:25:37.424Z,24.37
2023-03-27T15:28:10.380Z,24.83
2023-03-27T15:30:41.449Z,13.93
2023-03-27T15:33:20.346Z,15.43
2023-03-27T15:35:51.599Z,14.23
2023-03-27T15:38:26.458Z,12.63
2023-03-27T15:41:02.659Z,13.33
2023-03-27T15:43:31.843Z,13.47
2023-03-27T15:46:14.154Z,10.67
2023-03-27T15:48:45.621Z,9.60
2023-03-27T15:51:27.902Z,10.93
2023-03-27T15:53:56.798Z,10.97
2023-03-27T15:56:27.173Z,9.77
2023-03-27T15:58:58.319Z,13.37
2023-03-27T16:01:32.052Z,10.57
2023-03-27T16:04:05.821Z,10.20
2023-03-27T16:06:37.501Z,12.43
2023-03-27T16:09:10.082Z,12.20
2023-03-27T16:11:45.770Z,14.33
2023-03-27T16:14:29.014Z,11.63
2023-03-27T16:17:12.234Z,13.60
2023-03-27T16:19:50.724Z,12.03
2023-03-27T16:22:23.640Z,13.17
2023-03-27T16:24:52.488Z,13.60
2023-03-27T16:27:22.852Z,12.87
2023-03-27T16:29:51.414Z,12.33
2023-03-27T16:32:20.309Z,11.50
2023-03-27T16:34:51.459Z,11.27
2023-03-27T16:37:21.337Z,13.07
2023-03-27T16:39:49.927Z,9.33
2023-03-27T16:42:20.473Z,10.77
2023-03-27T16:44:49.603Z,9.57
2023-03-27T16:47:18.471Z,9.23
2023-03-27T16:49:53.426Z,10.27
2023-03-27T16:52:29.375Z,7.50
2023-03-27T16:54:57.330Z,5.20
2023-03-27T16:57:25.700Z,7.57
2023-03-27T16:59:53.660Z,8.20
2023-03-27T17:02:21.659Z,0.80
2023-03-27T17:04:49.676Z,2.20
2023-03-27T17:07:18.105Z,4.37
2023-03-27T17:09:47.447Z,6.77
2023-03-27T17:12:15.483Z,1.63
2023-03-27T17:14:43.541Z,3.90
2023-03-27T17:17:11.870Z,3.20
2023-03-27T17:19:39.943Z,2.97
2023-03-27T17:22:07.902Z,0.20
2023-03-27T17:24:49.157Z,0.70
2023-03-27T17:27:26.891Z,0.67
2023-03-27T17:29:55.686Z,1.20
2023-03-27T17:32:23.854Z,1.77
2023-03-27T17:34:52.229Z,1.37
2023-03-27T17:37:20.975Z,2.10
2023-03-27T17:39:49.657Z,2.70
2023-03-27T17:42:22.140Z,3.17
2023-03-27T17:44:52.386Z,18.33
2023-03-27T17:47:20.347Z,1.40
2023-03-27T17:49:48.342Z,1.57
2023-03-27T17:52:16.483Z,1.67
2023-03-27T17:54:44.746Z,2.30
2023-03-27T17:57:12.831Z,2.43
2023-03-27T17:59:40.949Z,3.07
2023-03-27T18:02:17.055Z,1.73
2023-03-27T18:04:45.269Z,2.30
2023-03-27T18:07:13.309Z,1.80
2023-03-27T18:09:41.650Z,2.93
2023-03-27T18:12:09.652Z,3.90
2023-03-27T18:14:38.151Z,2.37
2023-03-27T18:17:06.415Z,1.57
2023-03-27T18:19:35.753Z,0.50
2023-03-27T18:22:04.257Z,5.97
2023-03-27T18:24:32.290Z,4.17
2023-03-27T18:27:00.255Z,5.97
2023-03-27T18:29:29.248Z,5.20
2023-03-27T18:31:57.332Z,6.17
2023-03-27T18:34:25.297Z,5.33
2023-03-27T18:36:54.635Z,5.90
2023-03-27T18:39:23.066Z,4.73
2023-03-27T18:41:51.346Z,5.03
2023-03-27T18:44:19.368Z,11.90
2023-03-27T18:46:47.419Z,5.23
2023-03-27T18:49:24.125Z,5.80
2023-03-27T18:51:53.982Z,5.50
2023-03-27T18:54:22.056Z,4.63
2023-03-27T18:56:50.414Z,4.43
2023-03-27T18:59:18.410Z,5.00
2023-03-27T19:01:46.537Z,4.77
2023-03-27T19:04:17.016Z,3.90
2023-03-27T19:06:46.231Z,4.70
2023-03-27T19:09:16.063Z,5.50
2023-03-27T19:11:44.816Z,7.40
2023-03-27T19:14:12.808Z,16.03
2023-03-27T19:16:40.866Z,5.93
2023-03-27T19:19:08.858Z,7.03
2023-03-27T19:21:36.868Z,6.80
2023-03-27T19:24:05.113Z,5.83
2023-03-27T19:26:37.318Z,6.53
2023-03-27T19:29:06.657Z,6.67
2023-03-27T19:31:35.398Z,5.47
2023-03-27T19:34:03.652Z,6.00
2023-03-27T19:36:32.610Z,6.37
2023-03-27T19:39:00.852Z,6.37
2023-03-27T19:41:28.893Z,6.60
2023-03-27T19:44:00.268Z,6.93
2023-03-27T19:46:29.188Z,5.77
2023-03-27T19:48:57.448Z,10.07
2023-03-27T19:51:25.630Z,5.80
2023-03-27T19:53:53.633Z,4.77
2023-03-27T19:56:21.977Z,5.40
2023-03-27T19:58:49.963Z,5.83
2023-03-27T20:01:19.800Z,4.80
2023-03-27T20:03:48.058Z,4.57
2023-03-27T20:06:19.534Z,6.20
2023-03-27T20:08:47.586Z,5.43
2023-03-27T20:11:15.534Z,6.57
2023-03-27T20:13:55.525Z,5.43
2023-03-27T20:16:27.887Z,5.43
2023-03-27T20:19:04.640Z,12.37
2023-03-27T20:21:35.105Z,5.40
2023-03-27T20:24:03.200Z,11.67
2023-03-27T20:26:39.965Z,8.43
2023-03-27T20:29:09.125Z,8.70
2023-03-27T20:31:38.962Z,8.30
2023-03-27T20:34:07.984Z,10.00
2023-03-27T20:36:38.794Z,9.50
2023-03-27T20:39:08.850Z,12.67
2023-03-27T20:41:41.028Z,11.80
2023-03-27T20:44:15.139Z,12.07
2023-03-27T20:46:47.412Z,14.70
2023-03-27T20:49:37.612Z,14.33
2023-03-27T20:52:08.574Z,16.43
2023-03-27T20:54:36.794Z,12.27
2023-03-27T20:57:07.546Z,12.93
2023-03-27T20:59:35.616Z,11.93
2023-03-27T21:02:05.609Z,10.83
2023-03-27T21:04:33.827Z,10.73
2023-03-27T21:07:01.755Z,11.33
2023-03-27T21:09:29.721Z,14.33
2023-03-27T21:11:57.773Z,15.53
2023-03-27T21:14:25.845Z,12.13
2023-03-27T21:16:53.932Z,16.83
2023-03-27T21:19:23.440Z,13.37
2023-03-27T21:21:51.572Z,13.53
2023-03-27T21:24:20.447Z,13.07
2023-03-27T21:26:48.474Z,14.57
2023-03-27T21:29:16.826Z,10.10
2023-03-27T21:31:44.909Z,9.93
2023-03-27T21:34:13.054Z,10.30
2023-03-27T21:36:42.367Z,10.07
2023-03-27T21:39:10.701Z,13.00
2023-03-27T21:41:38.706Z,9.80
2023-03-27T21:44:06.910Z,10.17
2023-03-27T21:46:34.966Z,10.50
2023-03-27T21:49:03.089Z,10.40
2023-03-27T21:51:31.091Z,9.53
2023-03-27T21:54:00.398Z,9.90
2023-03-27T21:56:28.471Z,13.40
2023-03-27T21:58:57.391Z,9.70
2023-03-27T22:01:25.979Z,10.67
2023-03-27T22:03:54.024Z,12.43
2023-03-27T22:06:22.026Z,10.63
2023-03-27T22:08:49.977Z,13.03
2023-03-27T22:11:19.294Z,9.93
2023-03-27T22:13:49.012Z,10.40
2023-03-27T22:16:19.073Z,12.20
2023-03-27T22:18:47.653Z,10.43
2023-03-27T22:21:17.575Z,10.03
2023-03-27T22:23:45.957Z,9.40
2023-03-27T22:26:14.041Z,9.27
2023-03-27T22:28:43.382Z,9.77
2023-03-27T22:31:12.639Z,11.43
2023-03-27T22:33:41.103Z,10.63
2023-03-27T22:36:11.967Z,8.83
2023-03-27T22:38:41.398Z,10.20
2023-03-27T22:41:12.228Z,10.93
2023-03-27T22:43:41.015Z,11.73
2023-03-27T22:46:12.225Z,13.10
2023-03-27T22:48:40.757Z,11.33
2023-03-27T22:51:09.732Z,12.50
2023-03-27T22:53:38.465Z,15.47
2023-03-27T22:56:08.234Z,11.03
2023-03-27T22:58:36.293Z,16.33
2023-03-27T23:01:05.895Z,13.50
2023-03-27T23:03:35.594Z,10.47
2023-03-27T23:06:04.007Z,12.93
2023-03-27T23:08:33.364Z,12.50
2023-03-27T23:11:03.242Z,13.33
2023-03-27T23:13:32.974Z,10.83
2023-03-27T23:16:01.695Z,12.83
2023-03-27T23:18:30.060Z,9.97
2023-03-27T23:21:00.938Z,13.00
2023-03-27T23:23:31.218Z,10.20
2023-03-27T23:26:00.667Z,11.23
2023-03-27T23:28:31.984Z,10.93
2023-03-27T23:31:01.776Z,10.50
2023-03-27T23:33:34.150Z,13.40
2023-03-27T23:36:05.911Z,12.60
2023-03-27T23:38:34.032Z,11.87
2023-03-27T23:41:03.367Z,21.03
2023-03-27T23:43:32.122Z,11.60
2023-03-27T23:46:00.569Z,11.33
2023-03-27T23:48:29.525Z,13.63
2023-03-27T23:50:58.070Z,11.43
2023-03-27T23:53:29.217Z,9.53
2023-03-27T23:55:58.998Z,6.60
2023-03-27T23:58:32.050Z,7.57
